createdAt,value
2024-01-17T00:04:55.758Z,11.40
2024-01-17T00:09:59.277Z,11.80
2024-01-17T00:15:03.215Z,11.70
2024-01-17T00:20:08.025Z,14.20
2024-01-17T00:25:11.285Z,16.20
2024-01-17T00:30:34.724Z,11.20
2024-01-17T00:35:57.851Z,16.50
2024-01-17T00:41:20.890Z,12.40
2024-01-17T00:46:43.704Z,20.50
2024-01-17T00:52:06.476Z,17.70
2024-01-17T00:57:29.550Z,18.40
2024-01-17T01:02:52.512Z,17.00
2024-01-17T01:08:15.663Z,13.20
2024-01-17T01:13:38.644Z,13.80
2024-01-17T01:19:01.780Z,17.60
2024-01-17T01:24:25.133Z,15.90
2024-01-17T01:29:48.661Z,18.80
2024-01-17T01:35:11.874Z,18.80
2024-01-17T01:40:34.726Z,14.20
2024-01-17T01:45:57.753Z,17.60
2024-01-17T01:51:20.667Z,15.40
2024-01-17T01:56:47.639Z,16.30
2024-01-17T02:02:10.606Z,15.70
2024-01-17T02:07:35.552Z,23.50
2024-01-17T02:12:58.763Z,13.70
2024-01-17T02:18:22.018Z,19.30
2024-01-17T02:23:49.502Z,18.90
2024-01-17T02:29:12.310Z,16.00
2024-01-17T02:34:35.724Z,22.80
2024-01-17T02:39:38.838Z,17.70
2024-01-17T02:44:41.691Z,28.10
2024-01-17T02:49:44.736Z,23.80
2024-01-17T02:54:48.266Z,20.50
2024-01-17T03:00:11.609Z,21.00
2024-01-17T03:05:34.727Z,26.20
2024-01-17T03:10:57.471Z,26.30
2024-01-17T03:16:20.539Z,25.70
2024-01-17T03:21:43.313Z,21.30
2024-01-17T03:27:06.182Z,21.30
2024-01-17T03:32:29.240Z,20.30
2024-01-17T03:37:52.211Z,28.20
2024-01-17T03:43:15.100Z,24.00
2024-01-17T03:48:38.360Z,30.00
2024-01-17T03:54:02.110Z,25.50
2024-01-17T03:59:06.612Z,23.60
2024-01-17T04:04:09.581Z,32.60
2024-01-17T04:09:12.485Z,31.10
2024-01-17T04:14:16.006Z,30.80
2024-01-17T04:19:19.090Z,31.70
2024-01-17T04:24:21.954Z,25.50
2024-01-17T04:29:24.961Z,13.20
2024-01-17T04:34:28.268Z,34.90
2024-01-17T04:39:31.205Z,35.40
2024-01-17T04:44:34.531Z,30.90
2024-01-17T04:49:37.845Z,19.20
2024-01-17T04:54:41.284Z,20.80
2024-01-17T04:59:44.437Z,28.00
2024-01-17T05:04:47.629Z,17.60
2024-01-17T05:09:50.859Z,19.20
2024-01-17T05:14:54.008Z,24.00
2024-01-17T05:19:57.312Z,15.40
2024-01-17T05:25:00.209Z,25.40
2024-01-17T05:30:03.729Z,22.90
2024-01-17T05:35:07.806Z,32.30
2024-01-17T05:40:15.322Z,32.20
2024-01-17T05:45:18.490Z,28.50
2024-01-17T05:50:21.546Z,35.80
2024-01-17T05:55:24.606Z,26.70
2024-01-17T06:00:27.987Z,29.20
2024-01-17T06:05:31.260Z,25.10
2024-01-17T06:10:34.250Z,26.00
2024-01-17T06:15:37.991Z,29.50
2024-01-17T06:20:41.898Z,20.00
2024-01-17T06:25:45.064Z,32.20
2024-01-17T06:30:47.886Z,19.90
2024-01-17T06:35:51.285Z,25.80
2024-01-17T06:40:54.551Z,35.40
2024-01-17T06:45:57.489Z,21.60
2024-01-17T06:51:00.471Z,24.60
2024-01-17T06:56:03.530Z,28.40
2024-01-17T07:01:06.535Z,22.30
2024-01-17T07:06:10.361Z,27.70
2024-01-17T07:11:13.736Z,37.40
2024-01-17T07:16:17.159Z,26.30
2024-01-17T07:21:20.243Z,26.50
2024-01-17T07:26:23.519Z,43.50
2024-01-17T07:31:26.531Z,32.10
2024-01-17T07:36:29.923Z,31.30
2024-01-17T07:41:33.572Z,35.70
2024-01-17T07:46:36.669Z,29.00
2024-01-17T07:51:39.972Z,32.50
2024-01-17T07:56:43.820Z,43.00
2024-01-17T08:01:47.143Z,27.00
2024-01-17T08:06:50.192Z,22.40
2024-01-17T08:11:55.270Z,29.20
2024-01-17T08:16:58.566Z,30.00
2024-01-17T08:22:02.768Z,33.50
2024-01-17T08:32:08.735Z,26.80
2024-01-17T08:37:12.077Z,32.90
2024-01-17T08:42:15.611Z,23.20
2024-01-17T08:47:19.263Z,25.60
2024-01-17T08:52:22.670Z,25.70
2024-01-17T08:57:26.039Z,20.00
2024-01-17T09:02:29.389Z,25.60
2024-01-17T09:07:34.081Z,17.60
2024-01-17T09:12:37.786Z,20.30
2024-01-17T09:17:41.028Z,26.40
2024-01-17T09:22:44.773Z,19.50
2024-01-17T09:27:47.905Z,22.30
2024-01-17T09:32:51.011Z,16.50
2024-01-17T09:37:54.178Z,23.70
2024-01-17T09:43:06.672Z,24.60
2024-01-17T09:48:39.542Z,24.30
2024-01-17T09:54:06.879Z,24.90
2024-01-17T09:59:34.848Z,28.30
2024-01-17T10:04:57.981Z,35.50
2024-01-17T10:10:20.849Z,24.30
2024-01-17T10:15:46.549Z,19.80
2024-01-17T10:21:09.811Z,18.80
2024-01-17T10:26:32.854Z,20.00
2024-01-17T10:31:36.040Z,22.10
2024-01-17T10:36:40.847Z,24.80
2024-01-17T10:41:54.416Z,18.30
2024-01-17T10:46:57.955Z,12.50
2024-01-17T10:52:12.845Z,16.20
2024-01-17T10:57:17.321Z,18.50
2024-01-17T11:02:22.505Z,17.50
2024-01-17T11:07:26.663Z,15.90
2024-01-17T11:12:33.102Z,20.00
2024-01-17T11:17:38.232Z,21.10
2024-01-17T11:22:41.907Z,25.90
2024-01-17T11:28:11.084Z,21.40
2024-01-17T11:33:15.456Z,15.30
2024-01-17T11:38:25.140Z,24.30
2024-01-17T11:43:32.370Z,18.00
2024-01-17T11:48:41.105Z,19.30
2024-01-17T11:54:08.331Z,16.20
2024-01-17T11:59:31.677Z,18.50
2024-01-17T12:04:55.028Z,16.80
2024-01-17T12:15:18.331Z,16.50
2024-01-17T12:25:24.782Z,17.60
2024-01-17T12:30:28.511Z,17.20
2024-01-17T12:35:31.716Z,18.60
2024-01-17T12:40:34.662Z,16.10
2024-01-17T12:45:39.793Z,27.30
2024-01-17T12:50:56.286Z,59.40
2024-01-17T12:56:01.653Z,32.40
2024-01-17T13:01:06.396Z,21.40
2024-01-17T13:06:10.730Z,30.10
2024-01-17T13:11:18.384Z,19.60
2024-01-17T13:16:21.676Z,26.30
2024-01-17T13:21:24.855Z,27.90
2024-01-17T13:26:27.701Z,18.70
2024-01-17T13:31:31.010Z,31.50
2024-01-17T13:36:34.950Z,24.00
2024-01-17T13:46:40.775Z,11.60
2024-01-17T13:51:47.762Z,16.70
2024-01-17T13:56:54.890Z,15.50
2024-01-17T14:01:58.339Z,16.60
2024-01-17T14:07:01.352Z,15.40
2024-01-17T14:12:06.987Z,12.80
2024-01-17T14:17:10.830Z,13.20
2024-01-17T14:22:13.872Z,17.30
2024-01-17T14:27:17.525Z,14.60
2024-01-17T14:32:20.742Z,14.50
2024-01-17T14:37:24.030Z,16.10
2024-01-17T14:42:27.079Z,11.50
2024-01-17T14:47:31.479Z,18.00
2024-01-17T14:52:34.775Z,17.80
2024-01-17T14:57:38.603Z,12.50
2024-01-17T15:07:44.445Z,14.90
2024-01-17T15:12:47.412Z,14.10
2024-01-17T15:17:50.573Z,14.80
2024-01-17T15:22:53.673Z,13.50
2024-01-17T15:27:56.704Z,11.30
2024-01-17T15:32:59.584Z,23.80
2024-01-17T15:38:02.954Z,12.90
2024-01-17T15:43:05.679Z,18.00
2024-01-17T15:48:08.660Z,18.20
2024-01-17T15:53:13.456Z,16.20
2024-01-17T15:58:17.776Z,19.90
2024-01-17T16:03:21.685Z,23.60
2024-01-17T16:08:24.801Z,18.50
2024-01-17T16:13:48.532Z,12.10
2024-01-17T16:19:11.656Z,16.40
2024-01-17T16:29:17.960Z,21.00
2024-01-17T16:34:20.967Z,16.10
2024-01-17T16:39:23.915Z,22.40
2024-01-17T16:44:26.698Z,22.30
2024-01-17T16:49:30.806Z,25.00
2024-01-17T16:54:34.208Z,25.00
2024-01-17T16:59:37.295Z,20.50
2024-01-17T17:04:40.385Z,25.80
2024-01-17T17:09:43.772Z,20.30
2024-01-17T17:14:46.817Z,21.90
2024-01-17T17:19:50.006Z,23.30
2024-01-17T17:24:53.034Z,21.80
2024-01-17T17:29:56.404Z,28.70
2024-01-17T17:35:00.138Z,27.10
2024-01-17T17:40:05.931Z,33.60
2024-01-17T17:45:10.490Z,25.60
2024-01-17T17:50:14.850Z,22.00
2024-01-17T17:55:17.888Z,27.70
2024-01-17T18:00:21.973Z,25.30
2024-01-17T18:05:25.016Z,29.90
2024-01-17T18:10:48.111Z,25.40
2024-01-17T18:15:50.933Z,34.90
2024-01-17T18:20:55.447Z,27.00
2024-01-17T18:25:58.782Z,23.10
2024-01-17T18:31:03.347Z,30.20
2024-01-17T18:36:27.567Z,30.80
2024-01-17T18:41:50.700Z,30.90
2024-01-17T18:47:13.436Z,21.90
2024-01-17T18:52:36.404Z,29.90
2024-01-17T18:57:59.360Z,24.70
2024-01-17T19:03:22.277Z,29.70
2024-01-17T19:14:08.452Z,32.30
2024-01-17T19:19:31.562Z,36.60
2024-01-17T19:24:35.882Z,42.20
2024-01-17T19:29:38.982Z,37.10
2024-01-17T19:34:42.497Z,31.20
2024-01-17T19:40:05.570Z,35.50
2024-01-17T19:45:29.084Z,40.50
2024-01-17T19:50:32.458Z,40.00
2024-01-17T19:55:35.380Z,45.70
2024-01-17T20:00:38.727Z,40.10
2024-01-17T20:05:41.932Z,36.90
2024-01-17T20:10:44.920Z,29.90
2024-01-17T20:15:49.108Z,42.30
2024-01-17T20:20:52.306Z,39.10
2024-01-17T20:25:55.111Z,33.50
2024-01-17T20:30:57.959Z,44.00
2024-01-17T20:36:21.070Z,32.20
2024-01-17T20:41:24.511Z,43.00
2024-01-17T20:46:27.668Z,36.50
2024-01-17T20:51:31.391Z,42.40
2024-01-17T20:56:35.616Z,33.40
2024-01-17T21:01:39.140Z,44.60
2024-01-17T21:07:03.391Z,44.10
2024-01-17T21:12:26.534Z,54.40
2024-01-17T21:17:29.452Z,42.20
2024-01-17T21:22:32.317Z,47.10
2024-01-17T21:27:35.310Z,43.90
2024-01-17T21:32:38.509Z,34.70
2024-01-17T21:37:43.359Z,47.40
2024-01-17T21:42:46.316Z,39.00
2024-01-17T21:47:49.424Z,41.90
2024-01-17T21:53:12.334Z,42.40
2024-01-17T21:58:35.277Z,35.50
2024-01-17T22:03:38.364Z,36.30
2024-01-17T22:08:48.926Z,40.20
2024-01-17T22:13:58.259Z,35.20
2024-01-17T22:19:01.515Z,36.00
2024-01-17T22:24:04.604Z,43.80
2024-01-17T22:29:07.558Z,39.50
2024-01-17T22:34:10.916Z,38.50
2024-01-17T22:39:15.893Z,31.20
2024-01-17T22:44:21.199Z,33.70
2024-01-17T22:49:24.356Z,39.00
2024-01-17T22:54:27.820Z,30.20
2024-01-17T22:59:30.893Z,39.00
2024-01-17T23:04:34.504Z,42.30
2024-01-17T23:09:37.528Z,40.30
2024-01-17T23:14:41.196Z,38.60
2024-01-17T23:19:44.058Z,39.80
2024-01-17T23:24:47.031Z,42.50
2024-01-17T23:29:50.309Z,31.00
2024-01-17T23:34:53.268Z,35.20
2024-01-17T23:39:56.542Z,33.60
2024-01-17T23:44:59.292Z,31.10
2024-01-17T23:50:02.412Z,33.10
2024-01-17T23:55:06.284Z,40.10
